Williams, Indiana
Current Conditions -  °F | °C
As of 8:44 AM on Friday 24 Oct 2014 (Local Time) from KBMG Reporting Station
Overcast Overcast  
Wind Chill: 45°   Ceiling: 3100
Heat Index: 45°   Visibility: 8mi
Dew Point: 43°   Wind: 0mph
Humidity: 93%   Direction: NA
Pressure: 30.12"   Gusts: NA
Location:  38.8°N, 86.65°W
Report Text: KBMG 241244Z 00000KT 8SM OVC031 07/06 A3012 RMK AO2 T00720061
Loading
Personal Weather Stations






























Interactive Weather Map
Tropical Storm Tracking
New forecast layout! Learn more

10-Day Weather Forecast

Advertisements
Track Severe Weather on mobile